Hovedside
METAR-TAF:

METAR-TAF

Lufthavner :

Pohnpei, Mikronesia

breddegrad: 06-59N, lengdegrad: 158-12E, høyde over havet: 2 m

Gjeldene værobservasjon

Denne rapporten ble laget for 33 minutter siden, klokken 01:50 UTC
Vind 10 kt fra Øst-nordøst
Temperatur 31°C
Luftfuktighet 71%
Trykk 1007 hPa
Sikt: 24.1 km
Spredte skyer i en høyde av 1800 ft, Tårnskyer (cumulus).
Spredte skyer i en høyde av 13000 ft
Brutte skyer i en høyde av 30000 ft

METAR: PTPN 220150Z 07010KT 15SM SCT018TCU SCT130 BKN300 31/25 A2974 RMK TCU SE-S

Tid: 13:23 (02:23 UTC)

Varsel

Denne rapporten ble laget for 3 timer og 2 minutter siden, klokken 23:21 UTC
Varsel gyldig fra 22. klokken 00 UTC til 22. klokken 24 UTC
Vind 11 kt fra Øst-nordøst
Sikt: 10 km
Spredte skyer i en høyde av 1800 ft
Spredte skyer i en høyde av 13000 ft

TAF: PTPN 212321Z 2200/2224 07011KT P6SM SCT018 SCT130

Værobservasjoner og værvarsel for over 4000 flyplasser (METAR- og TAF-rapporter).

Tilgjengelige stasjoner er representert av de røde og gule prikkene på kartet.

Hold musepekeren over prikken for å se navnet på stasjonen.

Klikk så for å se værobservasjoner og -varsler.

For å forandre kartet kan du klikke på den grønne knappen med svart kryss for å zoome inn, på den grønne knappen med strek for å zoome ut, eller på de grønne pilene for å se tilstøtende kart.


METAR-TAF: